Main page
METAR-TAF:

METAR-TAF

Airports :

RAF Linton-on-Ouse

Linton-on-Ouse, England

latitude: 54-03N, longitude: 001-15W, elevation: 16 m

Current weather observation

The report was made 57 minutes ago, at 12:50 UTC
Wind 3 kt from the South
Temperature 6°C
Humidity 81%
Pressure 996 hPa
Visibility 10 km or more
Few clouds at a height of 4000 ft
Scattered clouds at a height of 15000 ft

METAR: EGXU 131250Z 18003KT 9999 FEW040 SCT150 06/03 Q0996 RMK BLU

Time: 13:47 (13:47 UTC)

Forecast

The report was made 3 hours and 0 minutes ago, at 10:47 UTC
Forecast valid from 13 at 12 UTC to 13 at 19 UTC
Wind 4 kt from the South/Southeast
Visibility 10 km or more
Few clouds at a height of 2500 ft
Probability 40% :
Temporary
from 13 at 13 UTC to 13 at 18 UTC
Scattered clouds at a height of 2000 ft

TAF: EGXU 131047Z 1312/1319 16004KT 9999 FEW025 PROB40 TEMPO 1313/1318 SCT020

Weather observations and forecasts of more than 4000 airports (METAR and TAF reports).

The available stations are represented by yellow and red dots on the map.

Hover mouse over dot to see the name of the station.

Then click to see weather observations and forecasts.

To change the map : click on the green buttons with a black cross to zoom in, on the green button with a dash to zoom out, or on the green arrows for adjacent maps.


METAR-TAF: